createdAt,value
2017-12-17T00:00:23.083Z,0
2017-12-17T00:01:23.329Z,0
2017-12-17T00:02:23.607Z,0
2017-12-17T00:03:23.598Z,0
2017-12-17T00:04:22.989Z,0
2017-12-17T00:05:22.986Z,0
2017-12-17T00:06:23.529Z,0
2017-12-17T00:07:22.975Z,0
2017-12-17T00:08:23.500Z,0
2017-12-17T00:09:23.196Z,0
2017-12-17T00:10:22.902Z,0
2017-12-17T00:11:23.417Z,0
2017-12-17T00:12:23.408Z,0
2017-12-17T00:13:23.424Z,0
2017-12-17T00:14:23.108Z,0
2017-12-17T00:15:22.827Z,0
2017-12-17T00:16:23.132Z,0
2017-12-17T00:17:23.333Z,0
2017-12-17T00:18:23.321Z,0
2017-12-17T00:19:23.303Z,0
2017-12-17T00:20:23.003Z,0
2017-12-17T00:21:22.713Z,0
2017-12-17T00:22:22.936Z,0
2017-12-17T00:23:22.924Z,0
2017-12-17T00:24:22.929Z,0
2017-12-17T00:25:22.898Z,0
2017-12-17T00:26:22.895Z,0
2017-12-17T00:27:22.591Z,0
2017-12-17T00:28:22.559Z,0
2017-12-17T00:29:23.087Z,0
2017-12-17T00:30:22.798Z,0
2017-12-17T00:31:22.825Z,0
2017-12-17T00:32:22.501Z,0
2017-12-17T00:33:22.756Z,0
2017-12-17T00:34:22.719Z,0
2017-12-17T00:35:22.448Z,0
2017-12-17T00:36:22.962Z,0
2017-12-17T00:37:22.688Z,0
2017-12-17T00:38:22.651Z,0
2017-12-17T00:39:22.629Z,0
2017-12-17T00:40:22.626Z,0
2017-12-17T00:41:22.325Z,0
2017-12-17T00:42:22.306Z,0
2017-12-17T00:43:22.289Z,0
2017-12-17T00:44:22.570Z,0
2017-12-17T00:45:22.524Z,0
2017-12-17T00:46:22.501Z,0
2017-12-17T00:47:22.760Z,0
2017-12-17T00:48:22.769Z,0
2017-12-17T00:49:22.183Z,0
2017-12-17T00:50:22.163Z,0
2017-12-17T00:51:22.428Z,0
2017-12-17T00:52:22.129Z,0
2017-12-17T00:53:22.383Z,0
2017-12-17T00:54:22.378Z,0
2017-12-17T00:55:22.070Z,0
2017-12-17T00:56:22.393Z,0
2017-12-17T00:57:22.304Z,0
2017-12-17T00:58:22.576Z,0
2017-12-17T00:59:21.997Z,0
2017-12-17T01:00:21.982Z,0
2017-12-17T01:01:22.569Z,0
2017-12-17T01:02:21.964Z,0
2017-12-17T01:03:21.958Z,0
2017-12-17T01:04:22.182Z,0
2017-12-17T01:05:21.887Z,0
2017-12-17T01:06:22.148Z,0
2017-12-17T01:07:22.394Z,0
2017-12-17T01:08:22.106Z,0
2017-12-17T01:09:21.824Z,0
2017-12-17T01:10:21.795Z,0
2017-12-17T01:11:22.069Z,0
2017-12-17T01:12:22.573Z,0
2017-12-17T01:13:22.018Z,0
2017-12-17T01:14:21.994Z,0
2017-12-17T01:15:22.002Z,0
2017-12-17T01:16:22.237Z,0
2017-12-17T01:17:21.963Z,0
2017-12-17T01:18:21.945Z,0
2017-12-17T01:19:21.649Z,0
2017-12-17T01:20:22.166Z,0
2017-12-17T01:21:22.419Z,0
2017-12-17T01:22:21.865Z,0
2017-12-17T01:23:21.833Z,0
2017-12-17T01:24:22.371Z,0
2017-12-17T01:25:21.526Z,0
2017-12-17T01:26:21.794Z,0
2017-12-17T01:27:22.037Z,0
2017-12-17T01:28:22.041Z,0
2017-12-17T01:29:22.016Z,0
2017-12-17T01:30:21.437Z,0
2017-12-17T01:31:21.689Z,0
2017-12-17T01:32:21.684Z,0
2017-12-17T01:33:21.922Z,0
2017-12-17T01:34:22.174Z,0
2017-12-17T01:35:21.912Z,0
2017-12-17T01:36:21.599Z,0
2017-12-17T01:37:21.309Z,0
2017-12-17T01:38:21.287Z,0
2017-12-17T01:39:21.560Z,0
2017-12-17T01:40:21.531Z,0
2017-12-17T01:41:21.528Z,0
2017-12-17T01:42:21.493Z,0
2017-12-17T01:43:21.742Z,0
2017-12-17T01:44:21.176Z,0
2017-12-17T01:45:21.440Z,0
2017-12-17T01:46:21.155Z,0
2017-12-17T01:47:21.400Z,0
2017-12-17T01:48:21.379Z,0
2017-12-17T01:49:21.380Z,0
2017-12-17T01:50:21.634Z,0
2017-12-17T01:51:21.601Z,0
2017-12-17T01:52:23.201Z,0
2017-12-17T01:53:21.018Z,0
2017-12-17T01:54:21.543Z,0
2017-12-17T01:55:21.271Z,0
2017-12-17T01:56:20.969Z,0
2017-12-17T01:57:21.224Z,0
2017-12-17T01:58:20.924Z,0
2017-12-17T01:59:21.747Z,0
2017-12-17T02:00:20.887Z,0
2017-12-17T02:01:21.414Z,0
2017-12-17T02:02:21.125Z,0
2017-12-17T02:03:21.108Z,0
2017-12-17T02:04:21.096Z,0
2017-12-17T02:05:21.364Z,0
2017-12-17T02:06:21.050Z,0
2017-12-17T02:07:21.032Z,0
2017-12-17T02:08:21.035Z,0
2017-12-17T02:09:20.722Z,0
2017-12-17T02:10:20.974Z,0
2017-12-17T02:11:20.966Z,0
2017-12-17T02:12:20.950Z,0
2017-12-17T02:13:20.649Z,0
2017-12-17T02:14:20.912Z,0
2017-12-17T02:15:21.170Z,0
2017-12-17T02:16:20.885Z,0
2017-12-17T02:17:20.582Z,0
2017-12-17T02:18:21.112Z,0
2017-12-17T02:19:20.813Z,0
2017-12-17T02:20:20.521Z,0
2017-12-17T02:21:21.329Z,0
2017-12-17T02:22:20.485Z,0
2017-12-17T02:23:20.740Z,0
2017-12-17T02:24:20.992Z,0
2017-12-17T02:25:20.977Z,0
2017-12-17T02:26:21.027Z,0
2017-12-17T02:27:21.213Z,0
2017-12-17T02:28:20.651Z,0
2017-12-17T02:29:20.628Z,0
2017-12-17T02:30:20.615Z,0
2017-12-17T02:31:20.336Z,0
2017-12-17T02:32:20.862Z,0
2017-12-17T02:33:20.775Z,0
2017-12-17T02:34:20.565Z,0
2017-12-17T02:35:20.267Z,0
2017-12-17T02:36:21.107Z,0
2017-12-17T02:37:20.503Z,0
2017-12-17T02:38:20.747Z,0
2017-12-17T02:39:20.737Z,0
2017-12-17T02:40:20.731Z,0
2017-12-17T02:41:20.153Z,0
2017-12-17T02:42:20.424Z,0
2017-12-17T02:43:20.649Z,0
2017-12-17T02:44:20.361Z,0
2017-12-17T02:45:20.348Z,0
2017-12-17T02:46:20.347Z,0
2017-12-17T02:47:20.596Z,0
2017-12-17T02:48:20.288Z,0
2017-12-17T02:49:20.543Z,0
2017-12-17T02:50:20.262Z,0
2017-12-17T02:51:19.953Z,0
2017-12-17T02:52:20.215Z,0
2017-12-17T02:53:20.200Z,0
2017-12-17T02:54:20.464Z,0
2017-12-17T02:55:20.433Z,0
2017-12-17T02:56:20.141Z,0
2017-12-17T02:57:20.216Z,0
2017-12-17T02:58:20.106Z,0
2017-12-17T02:59:20.096Z,0
2017-12-17T03:00:19.806Z,0
2017-12-17T03:01:20.066Z,0
2017-12-17T03:02:20.422Z,0
2017-12-17T03:03:20.020Z,0
2017-12-17T03:04:19.721Z,0
2017-12-17T03:05:20.251Z,0
2017-12-17T03:06:19.959Z,0
2017-12-17T03:07:19.941Z,0
2017-12-17T03:08:19.940Z,0
2017-12-17T03:09:19.654Z,0
2017-12-17T03:10:19.615Z,0
2017-12-17T03:11:19.867Z,0
2017-12-17T03:12:19.852Z,0
2017-12-17T03:13:19.843Z,0
2017-12-17T03:14:19.544Z,0
2017-12-17T03:15:19.523Z,0
2017-12-17T03:16:19.503Z,0
2017-12-17T03:17:20.324Z,0
2017-12-17T03:18:20.279Z,0
2017-12-17T03:19:19.721Z,0
2017-12-17T03:20:19.454Z,0
2017-12-17T03:21:19.955Z,0
2017-12-17T03:22:19.988Z,0
2017-12-17T03:23:20.196Z,0
2017-12-17T03:24:19.636Z,0
2017-12-17T03:25:19.889Z,0
2017-12-17T03:26:19.352Z,0
2017-12-17T03:27:20.133Z,0
2017-12-17T03:28:19.881Z,0
2017-12-17T03:29:19.824Z,0
2017-12-17T03:30:19.547Z,0
2017-12-17T03:31:19.782Z,0
2017-12-17T03:32:19.212Z,0
2017-12-17T03:33:19.484Z,0
2017-12-17T03:34:19.459Z,0
2017-12-17T03:35:19.437Z,0
2017-12-17T03:36:19.416Z,0
2017-12-17T03:37:19.952Z,0
2017-12-17T03:38:19.112Z,0
2017-12-17T03:39:19.380Z,0
2017-12-17T03:40:19.963Z,0
2017-12-17T03:41:19.683Z,0
2017-12-17T03:42:19.504Z,0
2017-12-17T03:43:19.572Z,0
2017-12-17T03:44:18.995Z,0
2017-12-17T03:45:19.255Z,0
2017-12-17T03:46:19.239Z,0
2017-12-17T03:47:19.827Z,0
2017-12-17T03:48:18.921Z,0
2017-12-17T03:49:19.175Z,0
2017-12-17T03:50:18.931Z,0
2017-12-17T03:51:19.151Z,0
2017-12-17T03:52:19.399Z,0
2017-12-17T03:53:18.829Z,0
2017-12-17T03:54:18.815Z,0
2017-12-17T03:55:19.345Z,0
2017-12-17T03:56:18.779Z,0
2017-12-17T03:57:19.031Z,0
2017-12-17T03:58:19.289Z,0
2017-12-17T03:59:19.026Z,0
2017-12-17T04:00:18.984Z,0
2017-12-17T04:01:18.982Z,0
2017-12-17T04:02:19.222Z,0
2017-12-17T04:03:18.924Z,0
2017-12-17T04:04:18.908Z,0
2017-12-17T04:05:18.615Z,0
2017-12-17T04:06:18.606Z,0
2017-12-17T04:07:18.849Z,0
2017-12-17T04:08:18.833Z,0
2017-12-17T04:09:19.394Z,0
2017-12-17T04:10:18.795Z,0
2017-12-17T04:11:18.776Z,0
2017-12-17T04:12:18.772Z,0
2017-12-17T04:13:18.758Z,0
2017-12-17T04:14:18.450Z,0
2017-12-17T04:15:18.704Z,0
2017-12-17T04:16:18.688Z,0
2017-12-17T04:17:18.951Z,0
2017-12-17T04:18:18.927Z,0
2017-12-17T04:19:18.361Z,0
2017-12-17T04:20:18.917Z,0
2017-12-17T04:21:18.319Z,0
2017-12-17T04:22:18.866Z,0
2017-12-17T04:23:18.571Z,0
2017-12-17T04:24:18.541Z,0
2017-12-17T04:25:18.791Z,0
2017-12-17T04:26:18.517Z,0
2017-12-17T04:27:18.268Z,0
2017-12-17T04:28:18.499Z,0
2017-12-17T04:29:18.459Z,0
2017-12-17T04:30:18.176Z,0
2017-12-17T04:31:18.139Z,0
2017-12-17T04:32:18.120Z,0
2017-12-17T04:33:18.652Z,0
2017-12-17T04:34:22.135Z,0
2017-12-17T04:35:18.336Z,0
2017-12-17T04:36:18.613Z,0
2017-12-17T04:37:18.033Z,0
2017-12-17T04:38:18.308Z,0
2017-12-17T04:39:18.538Z,0
2017-12-17T04:40:17.979Z,0
2017-12-17T04:41:18.779Z,0
2017-12-17T04:42:18.219Z,0
2017-12-17T04:43:18.467Z,0
2017-12-17T04:44:18.169Z,0
2017-12-17T04:45:18.157Z,0
2017-12-17T04:46:18.411Z,0
2017-12-17T04:47:18.126Z,0
2017-12-17T04:48:17.827Z,0
2017-12-17T04:49:18.106Z,0
2017-12-17T04:50:18.061Z,0
2017-12-17T04:51:18.063Z,0
2017-12-17T04:52:18.029Z,0
2017-12-17T04:53:18.283Z,0
2017-12-17T04:54:18.279Z,0
2017-12-17T04:55:18.025Z,0
2017-12-17T04:56:18.231Z,0
2017-12-17T04:57:18.530Z,0
2017-12-17T04:58:18.464Z,0
2017-12-17T04:59:17.909Z,0
2017-12-17T05:00:18.164Z,0
2017-12-17T05:01:17.589Z,0
2017-12-17T05:02:18.117Z,0
2017-12-17T05:03:17.831Z,0
2017-12-17T05:04:17.539Z,0
2017-12-17T05:05:17.795Z,0
2017-12-17T05:06:18.042Z,0
2017-12-17T05:07:17.765Z,0
2017-12-17T05:08:17.736Z,0
2017-12-17T05:09:17.995Z,0
2017-12-17T05:10:17.715Z,0
2017-12-17T05:11:17.981Z,0
2017-12-17T05:12:17.391Z,0
2017-12-17T05:13:17.936Z,0
2017-12-17T05:14:17.353Z,0
2017-12-17T05:15:17.882Z,0
2017-12-17T05:16:17.593Z,0
2017-12-17T05:17:17.846Z,0
2017-12-17T05:18:17.315Z,0
2017-12-17T05:19:17.563Z,0
2017-12-17T05:20:17.267Z,0
2017-12-17T05:21:17.228Z,0
2017-12-17T05:22:17.486Z,0
2017-12-17T05:23:17.468Z,0
2017-12-17T05:24:17.175Z,0
2017-12-17T05:25:17.439Z,0
2017-12-17T05:26:17.424Z,0
2017-12-17T05:27:17.663Z,0
2017-12-17T05:28:17.383Z,0
2017-12-17T05:29:17.357Z,0
2017-12-17T05:30:17.336Z,0
2017-12-17T05:31:17.050Z,0
2017-12-17T05:32:17.571Z,0
2017-12-17T05:33:17.853Z,0
2017-12-17T05:34:17.262Z,0
2017-12-17T05:35:17.246Z,0
2017-12-17T05:36:16.972Z,0
2017-12-17T05:37:17.480Z,0
2017-12-17T05:38:17.484Z,0
2017-12-17T05:39:16.909Z,0
2017-12-17T05:40:17.715Z,0
2017-12-17T05:41:16.894Z,0
2017-12-17T05:42:17.390Z,0
2017-12-17T05:43:17.402Z,0
2017-12-17T05:44:17.079Z,0
2017-12-17T05:45:17.107Z,0
2017-12-17T05:46:17.060Z,0
2017-12-17T05:47:17.048Z,0
2017-12-17T05:48:17.303Z,0
2017-12-17T05:49:16.999Z,0
2017-12-17T05:50:16.975Z,0
2017-12-17T05:51:17.244Z,0
2017-12-17T05:52:16.937Z,0
2017-12-17T05:53:16.645Z,0
2017-12-17T05:54:16.933Z,0
2017-12-17T05:55:16.884Z,0
2017-12-17T05:56:17.138Z,0
2017-12-17T05:57:16.575Z,0
2017-12-17T05:58:16.827Z,0
2017-12-17T05:59:16.864Z,0
2017-12-17T06:00:16.512Z,0
2017-12-17T06:01:16.767Z,0
2017-12-17T06:02:16.779Z,0
2017-12-17T06:03:16.737Z,0
2017-12-17T06:04:16.719Z,0
2017-12-17T06:05:16.696Z,0
2017-12-17T06:06:16.951Z,0
2017-12-17T06:07:16.938Z,0
2017-12-17T06:08:16.640Z,0
2017-12-17T06:09:16.413Z,0
2017-12-17T06:10:16.342Z,0
2017-12-17T06:11:16.311Z,0
2017-12-17T06:12:16.294Z,0
2017-12-17T06:13:16.548Z,0
2017-12-17T06:14:16.801Z,0
2017-12-17T06:15:16.532Z,0
2017-12-17T06:16:16.780Z,0
2017-12-17T06:17:16.479Z,0
2017-12-17T06:18:16.725Z,0
2017-12-17T06:19:16.190Z,0
2017-12-17T06:20:16.145Z,0
2017-12-17T06:21:16.151Z,0
2017-12-17T06:22:16.118Z,0
2017-12-17T06:23:16.375Z,0
2017-12-17T06:24:16.625Z,0
2017-12-17T06:25:16.641Z,0
2017-12-17T06:26:16.319Z,0
2017-12-17T06:27:16.068Z,0
2017-12-17T06:28:15.998Z,0
2017-12-17T06:29:15.989Z,0
2017-12-17T06:30:16.787Z,0
2017-12-17T06:31:16.225Z,0
2017-12-17T06:32:15.926Z,0
2017-12-17T06:33:15.915Z,0
2017-12-17T06:34:16.438Z,0
2017-12-17T06:35:16.147Z,0
2017-12-17T06:36:16.427Z,0
2017-12-17T06:37:16.116Z,0
2017-12-17T06:38:16.100Z,4
2017-12-17T06:39:16.104Z,4
2017-12-17T06:40:16.595Z,0
2017-12-17T06:41:15.764Z,4
2017-12-17T06:42:16.292Z,0
2017-12-17T06:43:16.008Z,4
2017-12-17T06:44:16.261Z,4
2017-12-17T06:45:16.240Z,8
2017-12-17T06:46:15.945Z,12
2017-12-17T06:47:15.675Z,12
2017-12-17T06:48:15.917Z,8
2017-12-17T06:49:16.167Z,8
2017-12-17T06:50:15.868Z,16
2017-12-17T06:51:16.164Z,16
2017-12-17T06:52:16.397Z,16
2017-12-17T06:53:15.684Z,20
2017-12-17T06:54:15.523Z,24
2017-12-17T06:55:15.506Z,28
2017-12-17T06:56:15.810Z,36
2017-12-17T06:57:16.046Z,44
2017-12-17T06:58:15.449Z,48
2017-12-17T06:59:15.980Z,52
2017-12-17T07:00:15.688Z,56
2017-12-17T07:01:15.710Z,64
2017-12-17T07:02:15.686Z,72
2017-12-17T07:03:15.359Z,80
2017-12-17T07:04:15.612Z,84
2017-12-17T07:05:15.339Z,84
2017-12-17T07:06:15.851Z,88
2017-12-17T07:07:15.557Z,92
2017-12-17T07:08:16.088Z,100
2017-12-17T07:09:15.529Z,108
2017-12-17T07:10:15.580Z,112
2017-12-17T07:11:15.418Z,124
2017-12-17T07:12:15.469Z,136
2017-12-17T07:13:15.444Z,148
2017-12-17T07:14:15.164Z,160
2017-12-17T07:15:15.151Z,160
2017-12-17T07:16:15.950Z,160
2017-12-17T07:17:15.378Z,172
2017-12-17T07:18:15.378Z,180
2017-12-17T07:19:15.347Z,200
2017-12-17T07:20:15.068Z,220
2017-12-17T07:21:15.596Z,236
2017-12-17T07:22:15.031Z,292
2017-12-17T07:23:14.999Z,372
2017-12-17T07:24:15.260Z,424
2017-12-17T07:25:14.960Z,440
2017-12-17T07:26:14.939Z,484
2017-12-17T07:27:15.470Z,584
2017-12-17T07:28:15.187Z,652
2017-12-17T07:29:14.887Z,696
2017-12-17T07:30:15.484Z,736
2017-12-17T07:31:14.845Z,776
2017-12-17T07:32:15.110Z,796
2017-12-17T07:33:15.354Z,796
2017-12-17T07:34:15.343Z,836
2017-12-17T07:35:15.068Z,884
2017-12-17T07:36:15.030Z,936
2017-12-17T07:37:15.297Z,984
2017-12-17T07:38:15.264Z,1068
2017-12-17T07:39:14.701Z,1184
2017-12-17T07:40:15.502Z,1260
2017-12-17T07:41:14.967Z,1256
2017-12-17T07:42:15.210Z,1232
2017-12-17T07:43:14.915Z,1204
2017-12-17T07:44:14.614Z,1100
2017-12-17T07:45:14.862Z,1188
2017-12-17T07:46:14.573Z,1124
2017-12-17T07:47:14.886Z,1112
2017-12-17T07:48:14.536Z,1200
2017-12-17T07:49:14.794Z,1280
2017-12-17T07:50:14.502Z,1380
2017-12-17T07:51:14.483Z,1424
2017-12-17T07:52:14.565Z,1460
2017-12-17T07:53:15.208Z,1604
2017-12-17T07:54:14.977Z,1564
2017-12-17T07:55:14.729Z,1588
2017-12-17T07:56:14.388Z,1524
2017-12-17T07:57:14.646Z,1576
2017-12-17T07:58:14.626Z,1620
2017-12-17T07:59:14.888Z,1592
2017-12-17T08:00:14.618Z,1400
2017-12-17T08:01:14.306Z,1428
2017-12-17T08:02:14.831Z,1336
2017-12-17T08:03:14.534Z,1268
2017-12-17T08:04:14.524Z,1320
2017-12-17T08:05:14.786Z,1268
2017-12-17T08:06:14.795Z,1196
2017-12-17T08:07:14.486Z,1084
2017-12-17T08:08:14.191Z,1000
2017-12-17T08:09:14.427Z,992
2017-12-17T08:10:14.980Z,960
2017-12-17T08:11:14.411Z,916
2017-12-17T08:12:14.924Z,1004
2017-12-17T08:13:14.375Z,1152
2017-12-17T08:14:14.345Z,1164
2017-12-17T08:15:14.871Z,1196
2017-12-17T08:16:14.306Z,1156
2017-12-17T08:17:14.308Z,1132
2017-12-17T08:18:14.845Z,1164
2017-12-17T08:19:13.979Z,1172
2017-12-17T08:20:14.507Z,1200
2017-12-17T08:21:14.212Z,1280
2017-12-17T08:22:14.755Z,1420
2017-12-17T08:23:13.904Z,1548
2017-12-17T08:24:14.433Z,1664
2017-12-17T08:25:14.162Z,1752
2017-12-17T08:26:14.390Z,1968
2017-12-17T08:27:13.832Z,2148
2017-12-17T08:28:14.109Z,2308
2017-12-17T08:29:14.658Z,2428
2017-12-17T08:30:14.325Z,2412
2017-12-17T08:31:14.332Z,2352
2017-12-17T08:32:14.054Z,2172
2017-12-17T08:33:13.720Z,2136
2017-12-17T08:34:13.727Z,2276
2017-12-17T08:35:13.969Z,2392
2017-12-17T08:36:13.943Z,2336
2017-12-17T08:37:13.653Z,2292
2017-12-17T08:38:13.924Z,2120
2017-12-17T08:39:13.618Z,1992
2017-12-17T08:40:13.594Z,1984
2017-12-17T08:41:13.885Z,2140
2017-12-17T08:42:14.122Z,2140
2017-12-17T08:43:13.541Z,2168
2017-12-17T08:44:13.798Z,2244
2017-12-17T08:45:13.791Z,2104
2017-12-17T08:46:14.034Z,1984
2017-12-17T08:47:13.490Z,1860
2017-12-17T08:48:13.721Z,1896
2017-12-17T08:49:13.715Z,1928
2017-12-17T08:50:13.417Z,1896
2017-12-17T08:51:13.690Z,2016
2017-12-17T08:52:13.385Z,2184
2017-12-17T08:53:13.362Z,2196
2017-12-17T08:54:13.620Z,2276
2017-12-17T08:55:13.605Z,2668
2017-12-17T08:56:13.875Z,3160
2017-12-17T08:57:13.567Z,3436
2017-12-17T08:58:13.277Z,3632
2017-12-17T08:59:13.533Z,3676
2017-12-17T09:00:13.241Z,3936
2017-12-17T09:01:13.495Z,3920
2017-12-17T09:02:13.221Z,3604
2017-12-17T09:03:13.187Z,3568
2017-12-17T09:04:13.182Z,3508
2017-12-17T09:05:13.425Z,3656
2017-12-17T09:06:13.950Z,3744
2017-12-17T09:07:13.403Z,3580
2017-12-17T09:08:13.370Z,3248
2017-12-17T09:09:13.356Z,3036
2017-12-17T09:10:13.085Z,3536
2017-12-17T09:11:13.045Z,4012
2017-12-17T09:12:13.726Z,3556
2017-12-17T09:13:13.567Z,3124
2017-12-17T09:14:12.997Z,3344
2017-12-17T09:15:13.274Z,3172
2017-12-17T09:16:13.839Z,2780
2017-12-17T09:17:13.210Z,3220
2017-12-17T09:18:12.930Z,3576
2017-12-17T09:19:13.178Z,3448
2017-12-17T09:20:13.153Z,3104
2017-12-17T09:21:12.887Z,3224
2017-12-17T09:22:13.123Z,3444
2017-12-17T09:23:13.104Z,3204
2017-12-17T09:24:13.638Z,2924
2017-12-17T09:25:13.623Z,3016
2017-12-17T09:26:13.341Z,2800
2017-12-17T09:27:13.035Z,2740
2017-12-17T09:28:12.743Z,2668
2017-12-17T09:29:13.298Z,2628
2017-12-17T09:30:12.980Z,2888
2017-12-17T09:31:13.239Z,3228
2017-12-17T09:32:12.679Z,3112
2017-12-17T09:33:12.966Z,3012
2017-12-17T09:34:13.222Z,3252
2017-12-17T09:35:12.619Z,3156
2017-12-17T09:36:12.874Z,2920
2017-12-17T09:37:13.148Z,3048
2017-12-17T09:38:13.383Z,3188
2017-12-17T09:39:12.550Z,3192
2017-12-17T09:40:12.530Z,3028
2017-12-17T09:41:12.786Z,2464
2017-12-17T09:42:12.768Z,2460
2017-12-17T09:43:13.018Z,2788
2017-12-17T09:44:12.733Z,2900
2017-12-17T09:45:12.717Z,2824
2017-12-17T09:46:12.966Z,2636
2017-12-17T09:47:12.685Z,2432
2017-12-17T09:48:13.216Z,2324
2017-12-17T09:49:12.921Z,2428
2017-12-17T09:50:12.354Z,2552
2017-12-17T09:51:12.613Z,2832
2017-12-17T09:52:12.331Z,2876
2017-12-17T09:53:12.574Z,3084
2017-12-17T09:54:12.838Z,3300
2017-12-17T09:55:12.269Z,3068
2017-12-17T09:56:12.268Z,2772
2017-12-17T09:57:12.502Z,2792
2017-12-17T09:58:12.767Z,3040
2017-12-17T09:59:12.196Z,3340
2017-12-17T10:00:12.461Z,3304
2017-12-17T10:01:12.574Z,3464
2017-12-17T10:02:12.423Z,3728
2017-12-17T10:03:12.127Z,3808
2017-12-17T10:04:12.381Z,4012
2017-12-17T10:05:12.357Z,4580
2017-12-17T10:06:12.642Z,5140
2017-12-17T10:07:12.597Z,5264
2017-12-17T10:08:12.583Z,6080
2017-12-17T10:09:12.575Z,6624
2017-12-17T10:10:12.278Z,6920
2017-12-17T10:11:12.535Z,7268
2017-12-17T10:12:12.516Z,7344
2017-12-17T10:13:11.977Z,7288
2017-12-17T10:14:12.205Z,7476
2017-12-17T10:15:12.458Z,7128
2017-12-17T10:16:12.436Z,7028
2017-12-17T10:17:11.879Z,7080
2017-12-17T10:18:12.140Z,8032
2017-12-17T10:19:12.393Z,8100
2017-12-17T10:20:12.377Z,8252
2017-12-17T10:21:11.812Z,8680
2017-12-17T10:22:12.063Z,8448
2017-12-17T10:23:11.782Z,8400
2017-12-17T10:24:12.046Z,7948
2017-12-17T10:25:12.014Z,6656
2017-12-17T10:26:12.276Z,6620
2017-12-17T10:27:12.261Z,6084
2017-12-17T10:28:12.249Z,5984
2017-12-17T10:29:11.947Z,5608
2017-12-17T10:30:11.939Z,5556
2017-12-17T10:31:11.918Z,5680
2017-12-17T10:32:11.628Z,6356
2017-12-17T10:33:11.615Z,6764
2017-12-17T10:34:12.136Z,6900
2017-12-17T10:35:11.853Z,5648
2017-12-17T10:36:12.384Z,5132
2017-12-17T10:37:12.114Z,5292
2017-12-17T10:38:11.804Z,5360
2017-12-17T10:39:12.050Z,5992
2017-12-17T10:40:12.053Z,5636
2017-12-17T10:41:11.479Z,5600
2017-12-17T10:42:11.737Z,6508
2017-12-17T10:43:11.439Z,6468
2017-12-17T10:44:11.985Z,6112
2017-12-17T10:45:12.236Z,6344
2017-12-17T10:46:11.934Z,5168
2017-12-17T10:47:11.655Z,4368
2017-12-17T10:48:11.901Z,3892
2017-12-17T10:49:11.910Z,3208
2017-12-17T10:50:11.328Z,3240
2017-12-17T10:51:12.138Z,3036
2017-12-17T10:52:11.293Z,2652
2017-12-17T10:53:11.822Z,2900
2017-12-17T10:54:11.541Z,3300
2017-12-17T10:55:11.525Z,3620
2017-12-17T10:56:11.784Z,3964
2017-12-17T10:57:11.763Z,3772
2017-12-17T10:58:11.187Z,4164
2017-12-17T10:59:11.442Z,4904
2017-12-17T11:00:11.435Z,5044
2017-12-17T11:01:11.963Z,5184
2017-12-17T11:02:11.391Z,5144
2017-12-17T11:03:11.379Z,5436
2017-12-17T11:04:11.360Z,5304
2017-12-17T11:05:11.068Z,5280
2017-12-17T11:06:11.474Z,4912
2017-12-17T11:07:11.331Z,5200
2017-12-17T11:08:11.291Z,5096
2017-12-17T11:09:11.543Z,4728
2017-12-17T11:10:11.551Z,5028
2017-12-17T11:11:11.570Z,4912
2017-12-17T11:12:11.218Z,5308
2017-12-17T11:13:11.477Z,5996
2017-12-17T11:14:11.189Z,7404
2017-12-17T11:15:11.174Z,6404
2017-12-17T11:16:11.429Z,5988
2017-12-17T11:17:10.863Z,5672
2017-12-17T11:18:11.392Z,6196
2017-12-17T11:19:11.099Z,5840
2017-12-17T11:20:11.086Z,6436
2017-12-17T11:21:10.803Z,6372
2017-12-17T11:22:11.323Z,6620
2017-12-17T11:23:11.305Z,6640
2017-12-17T11:24:11.293Z,7772
2017-12-17T11:25:11.310Z,8220
2017-12-17T11:26:10.992Z,7352
2017-12-17T11:27:10.998Z,6960
2017-12-17T11:28:11.251Z,6780
2017-12-17T11:29:10.712Z,6264
2017-12-17T11:30:10.644Z,5952
2017-12-17T11:31:10.618Z,5480
2017-12-17T11:32:10.881Z,5176
2017-12-17T11:33:10.863Z,4960
2017-12-17T11:34:10.587Z,4352
2017-12-17T11:35:10.849Z,4384
2017-12-17T11:36:10.810Z,4412
2017-12-17T11:37:11.151Z,4584
2017-12-17T11:38:10.775Z,4472
2017-12-17T11:39:10.497Z,5136
2017-12-17T11:40:10.773Z,5560
2017-12-17T11:41:10.739Z,5792
2017-12-17T11:42:11.031Z,6464
2017-12-17T11:43:10.427Z,6972
2017-12-17T11:44:10.970Z,8252
2017-12-17T11:45:10.671Z,9660
2017-12-17T11:46:10.374Z,8744
2017-12-17T11:47:10.920Z,8040
2017-12-17T11:48:10.632Z,7044
2017-12-17T11:49:10.863Z,6284
2017-12-17T11:50:10.591Z,5728
2017-12-17T11:51:10.300Z,5868
2017-12-17T11:52:10.821Z,5528
2017-12-17T11:53:10.536Z,5520
2017-12-17T11:54:10.805Z,5804
2017-12-17T11:55:10.520Z,5268
2017-12-17T11:56:10.489Z,4748
2017-12-17T11:57:10.462Z,4588
2017-12-17T11:58:10.809Z,4032
2017-12-17T11:59:10.154Z,4096
2017-12-17T12:00:10.702Z,3648
2017-12-17T12:01:10.124Z,3136
2017-12-17T12:02:10.112Z,2808
2017-12-17T12:03:10.620Z,2748
2017-12-17T12:04:10.343Z,2616
2017-12-17T12:05:10.314Z,2444
2017-12-17T12:06:10.298Z,2220
2017-12-17T12:07:10.587Z,2120
2017-12-17T12:08:10.275Z,2340
2017-12-17T12:09:10.274Z,2448
2017-12-17T12:10:09.957Z,2116
2017-12-17T12:11:10.489Z,2100
2017-12-17T12:12:09.929Z,2144
2017-12-17T12:13:10.204Z,2520
2017-12-17T12:14:10.165Z,2612
2017-12-17T12:15:10.154Z,2392
2017-12-17T12:16:10.437Z,2488
2017-12-17T12:17:10.120Z,2736
2017-12-17T12:18:09.871Z,2764
2017-12-17T12:19:09.822Z,2560
2017-12-17T12:20:10.343Z,2312
2017-12-17T12:21:09.788Z,2080
2017-12-17T12:22:10.056Z,1768
2017-12-17T12:23:09.745Z,1864
2017-12-17T12:24:09.774Z,1732
2017-12-17T12:25:10.284Z,1740
2017-12-17T12:26:10.257Z,1724
2017-12-17T12:27:09.960Z,1656
2017-12-17T12:28:10.207Z,1580
2017-12-17T12:29:10.237Z,1572
2017-12-17T12:30:09.906Z,1468
2017-12-17T12:31:10.467Z,1404
2017-12-17T12:32:10.394Z,1404
2017-12-17T12:33:09.842Z,1500
2017-12-17T12:34:10.092Z,1904
2017-12-17T12:35:10.095Z,1868
2017-12-17T12:36:09.557Z,2204
2017-12-17T12:37:10.138Z,2520
2017-12-17T12:38:10.049Z,2940
2017-12-17T12:39:10.021Z,2488
2017-12-17T12:40:09.443Z,2664
2017-12-17T12:41:09.735Z,2884
2017-12-17T12:42:09.701Z,3128
2017-12-17T12:43:09.424Z,3172
2017-12-17T12:44:09.646Z,3224
2017-12-17T12:45:09.378Z,2760
2017-12-17T12:46:09.887Z,2812
2017-12-17T12:47:09.601Z,2732
2017-12-17T12:48:09.585Z,2624
2017-12-17T12:49:09.600Z,2728
2017-12-17T12:50:09.815Z,2944
2017-12-17T12:51:09.794Z,2600
2017-12-17T12:52:09.530Z,2276
2017-12-17T12:53:09.786Z,2060
2017-12-17T12:54:09.738Z,2024
2017-12-17T12:55:09.202Z,1848
2017-12-17T12:56:09.445Z,2004
2017-12-17T12:57:09.230Z,2288
2017-12-17T12:58:09.414Z,2068
2017-12-17T12:59:09.423Z,1960
2017-12-17T13:00:09.618Z,1928
2017-12-17T13:01:09.082Z,1888
2017-12-17T13:02:09.066Z,2124
2017-12-17T13:03:09.332Z,2380
2017-12-17T13:04:09.032Z,2312
2017-12-17T13:05:09.018Z,2216
2017-12-17T13:06:09.804Z,2244
2017-12-17T13:07:09.225Z,2356
2017-12-17T13:08:09.256Z,2796
2017-12-17T13:09:09.186Z,3492
2017-12-17T13:10:09.200Z,3760
2017-12-17T13:11:09.179Z,4276
2017-12-17T13:12:09.424Z,4172
2017-12-17T13:13:09.136Z,3688
2017-12-17T13:14:09.130Z,2992
2017-12-17T13:15:09.113Z,2388
2017-12-17T13:16:09.098Z,2096
2017-12-17T13:17:09.325Z,1948
2017-12-17T13:18:09.026Z,1524
2017-12-17T13:19:08.779Z,1384
2017-12-17T13:20:08.988Z,1200
2017-12-17T13:21:09.007Z,992
2017-12-17T13:22:08.973Z,820
2017-12-17T13:23:08.949Z,740
2017-12-17T13:24:08.922Z,668
2017-12-17T13:25:09.218Z,648
2017-12-17T13:26:10.030Z,664
2017-12-17T13:27:08.620Z,716
2017-12-17T13:28:08.923Z,728
2017-12-17T13:29:08.851Z,748
2017-12-17T13:30:09.085Z,728
2017-12-17T13:31:09.098Z,856
2017-12-17T13:32:08.806Z,964
2017-12-17T13:33:09.028Z,1012
2017-12-17T13:34:08.793Z,952
2017-12-17T13:35:09.301Z,1096
2017-12-17T13:36:08.454Z,1176
2017-12-17T13:37:08.430Z,1256
2017-12-17T13:38:08.685Z,1272
2017-12-17T13:39:08.735Z,1200
2017-12-17T13:40:08.652Z,1136
2017-12-17T13:41:08.345Z,960
2017-12-17T13:42:08.918Z,864
2017-12-17T13:43:08.612Z,928
2017-12-17T13:44:08.896Z,928
2017-12-17T13:45:08.599Z,936
2017-12-17T13:46:08.868Z,956
2017-12-17T13:47:08.818Z,1044
2017-12-17T13:48:08.522Z,1008
2017-12-17T13:49:08.483Z,836
2017-12-17T13:50:08.478Z,812
2017-12-17T13:51:08.175Z,920
2017-12-17T13:52:08.169Z,864
2017-12-17T13:53:08.439Z,936
2017-12-17T13:54:08.394Z,860
2017-12-17T13:55:08.407Z,848
2017-12-17T13:56:08.103Z,772
2017-12-17T13:57:08.067Z,748
2017-12-17T13:58:08.627Z,756
2017-12-17T13:59:08.860Z,816
2017-12-17T14:00:08.333Z,940
2017-12-17T14:01:08.264Z,1016
2017-12-17T14:02:07.976Z,1112